Airfield :
LOGIN :

Register | Disclaimer

   EN    FR    IT 

 










Legend :    VFR   Marginal VFR   IFR   Intensive IFR   Very Intensive IFR
Visi :
Ceiling :
>= 8 km
>= 3000ft
5 to 8 km
1000 to 3000 ft
1500m to 5 km
500 to 1000 ft
800 to 1500m
200 to 500 ft
< 800m
< 200 ft
Symbols :   Thunderstorms  Fog  Heavy snow  Heavy precipitations  Wind > 20 kt
SIGMETs :     Misc.  Thunderstorms  Icing  Turbulence  Mountain Waves  Volcanic Ashes






- Airport Elevation : 989 ft
- IATA code : TRN


LIMF - Torino Caselle

CURRENT METAR :
  • 261750Z 35004KT 7000 FEW006 BKN012 BKN020 13/12 Q1003

EXPIRED METARs :
  • 261720Z 34003KT 310V010 6000 FEW006 SCT020 13/12 Q1003
  • 261650Z 06002KT 5000 BR FEW005 SCT020 BKN050 13/12 Q1003
  • 261620Z 03002KT 4500 BR SCT005 SCT020 BKN050 13/12 Q1003
  • 261550Z 01003KT 350V050 4500 BR SCT005 BKN020 OVC050 13/13 Q1003
  • 261520Z 07002KT 6000 BKN005 BKN020 13/12 Q1003

TAF TAF LIMF
Valid from the 26 at 18:00 until the 27 at 18:00 UTC


261700Z 2618/2718 VRB05KT 6000 BKN020
PROB40
TEMPO 2618/2621 4000 TSRA
BECMG 2621/2623 3000 BR
TEMPO 2700/2707 1200 BCFG BKN004
BECMG 2706/2708 6000



MET'MAP, your aeronautical weather chart ! - Copyright ORBIFLY December 2007 - Disclaimer

ORBIFLY MET'MAP TEAM :

Programming & Development : Alexandra Zaïnal
Concept & original design : Baudouin d'Aumeries
Assistance for programming : Marc-Olivier Méhu
Technical & hardware support : Manuel Goepfert

Contact : metmap@orbifly.com




SOURCES & CREDITS :

   NOAA